sensor_id;sensor_type;location;lat;lon;timestamp;pressure;altitude;pressure_sealevel;temperature;humidity
63552;BME280;49698;48.072;7.800;2023-04-20T00:00:36;99307.09;;;7.50;95.88
63552;BME280;49698;48.072;7.800;2023-04-20T00:03:04;99305.50;;;7.49;95.77
63552;BME280;49698;48.072;7.800;2023-04-20T00:05:34;99306.03;;;7.46;95.93
63552;BME280;49698;48.072;7.800;2023-04-20T00:08:03;99295.59;;;7.45;96.11
63552;BME280;49698;48.072;7.800;2023-04-20T00:10:31;99292.13;;;7.44;96.50
63552;BME280;49698;48.072;7.800;2023-04-20T00:12:59;99288.91;;;7.42;96.48
63552;BME280;49698;48.072;7.800;2023-04-20T00:15:27;99288.91;;;7.42;96.70
63552;BME280;49698;48.072;7.800;2023-04-20T00:17:55;99282.75;;;7.42;96.39
63552;BME280;49698;48.072;7.800;2023-04-20T00:20:23;99271.78;;;7.38;96.20
63552;BME280;49698;48.072;7.800;2023-04-20T00:22:52;99266.16;;;7.34;96.59
63552;BME280;49698;48.072;7.800;2023-04-20T00:25:21;99265.88;;;7.31;96.94
63552;BME280;49698;48.072;7.800;2023-04-20T00:27:49;99265.88;;;7.31;97.34
63552;BME280;49698;48.072;7.800;2023-04-20T00:30:17;99253.59;;;7.30;96.79
63552;BME280;49698;48.072;7.800;2023-04-20T00:32:45;99258.38;;;7.28;97.00
63552;BME280;49698;48.072;7.800;2023-04-20T00:35:13;99254.13;;;7.27;96.90
63552;BME280;49698;48.072;7.800;2023-04-20T00:37:41;99249.56;;;7.22;96.88
63552;BME280;49698;48.072;7.800;2023-04-20T00:40:11;99244.75;;;7.19;97.07
63552;BME280;49698;48.072;7.800;2023-04-20T00:42:39;99240.75;;;7.17;96.94
63552;BME280;49698;48.072;7.800;2023-04-20T00:45:10;99239.66;;;7.18;97.32
63552;BME280;49698;48.072;7.800;2023-04-20T00:47:38;99235.66;;;7.15;97.40
63552;BME280;49698;48.072;7.800;2023-04-20T00:50:07;99234.84;;;7.15;97.17
63552;BME280;49698;48.072;7.800;2023-04-20T00:52:38;99229.22;;;7.11;97.70
63552;BME280;49698;48.072;7.800;2023-04-20T00:55:07;99219.84;;;7.08;97.42
63552;BME280;49698;48.072;7.800;2023-04-20T00:57:38;99213.69;;;7.08;97.50
63552;BME280;49698;48.072;7.800;2023-04-20T01:00:08;99220.41;;;7.10;97.48
63552;BME280;49698;48.072;7.800;2023-04-20T01:02:36;99214.25;;;7.10;97.50
63552;BME280;49698;48.072;7.800;2023-04-20T01:05:08;99206.50;;;7.08;97.66
63552;BME280;49698;48.072;7.800;2023-04-20T01:07:37;99210.22;;;7.07;97.49
63552;BME280;49698;48.072;7.800;2023-04-20T01:10:06;99202.75;;;7.04;97.67
63552;BME280;49698;48.072;7.800;2023-04-20T01:12:39;99211.31;;;7.01;97.58
63552;BME280;49698;48.072;7.800;2023-04-20T01:15:09;99208.88;;;7.00;97.96
63552;BME280;49698;48.072;7.800;2023-04-20T01:17:38;99202.72;;;6.94;97.55
63552;BME280;49698;48.072;7.800;2023-04-20T01:20:09;99203.25;;;6.86;97.52
63552;BME280;49698;48.072;7.800;2023-04-20T01:22:44;99194.94;;;6.82;97.94
63552;BME280;49698;48.072;7.800;2023-04-20T01:25:12;99186.38;;;6.80;98.10
63552;BME280;49698;48.072;7.800;2023-04-20T01:27:41;99180.78;;;6.82;98.13
63552;BME280;49698;48.072;7.800;2023-04-20T01:30:09;99185.59;;;6.85;97.88
63552;BME280;49698;48.072;7.800;2023-04-20T01:32:38;99177.84;;;6.89;97.98
63552;BME280;49698;48.072;7.800;2023-04-20T01:35:07;99178.13;;;6.92;97.51
63552;BME280;49698;48.072;7.800;2023-04-20T01:37:37;99178.94;;;6.93;97.25
63552;BME280;49698;48.072;7.800;2023-04-20T01:40:08;99168.53;;;6.96;96.74
63552;BME280;49698;48.072;7.800;2023-04-20T01:42:37;99166.91;;;6.95;96.76
63552;BME280;49698;48.072;7.800;2023-04-20T01:45:06;99155.97;;;6.92;96.82
63552;BME280;49698;48.072;7.800;2023-04-20T01:47:36;99153.56;;;6.90;96.73
63552;BME280;49698;48.072;7.800;2023-04-20T01:50:06;99150.34;;;6.88;96.99
63552;BME280;49698;48.072;7.800;2023-04-20T01:52:34;99154.88;;;6.88;96.49
63552;BME280;49698;48.072;7.800;2023-04-20T01:55:02;99141.25;;;6.84;96.86
63552;BME280;49698;48.072;7.800;2023-04-20T01:57:32;99147.38;;;6.79;96.71
63552;BME280;49698;48.072;7.800;2023-04-20T02:00:00;99141.78;;;6.76;96.13
63552;BME280;49698;48.072;7.800;2023-04-20T02:02:39;99150.84;;;6.75;96.75
63552;BME280;49698;48.072;7.800;2023-04-20T02:05:08;99146.03;;;6.72;96.25
63552;BME280;49698;48.072;7.800;2023-04-20T02:07:36;99140.13;;;6.70;95.82
63552;BME280;49698;48.072;7.800;2023-04-20T02:10:06;99135.34;;;6.67;95.98
63552;BME280;49698;48.072;7.800;2023-04-20T02:12:35;99132.13;;;6.65;95.09
63552;BME280;49698;48.072;7.800;2023-04-20T02:15:04;99124.09;;;6.65;94.88
63552;BME280;49698;48.072;7.800;2023-04-20T02:17:32;99131.03;;;6.66;94.27
63552;BME280;49698;48.072;7.800;2023-04-20T02:20:02;99124.09;;;6.65;93.72
63552;BME280;49698;48.072;7.800;2023-04-20T02:22:32;99118.25;;;6.63;93.67
63552;BME280;49698;48.072;7.800;2023-04-20T02:25:00;99118.25;;;6.63;93.44
63552;BME280;49698;48.072;7.800;2023-04-20T02:27:29;99112.63;;;6.64;92.94
63552;BME280;49698;48.072;7.800;2023-04-20T02:29:59;99108.59;;;6.61;91.86
63552;BME280;49698;48.072;7.800;2023-04-20T02:32:27;99115.03;;;6.60;91.54
63552;BME280;49698;48.072;7.800;2023-04-20T02:34:55;99111.00;;;6.58;91.60
63552;BME280;49698;48.072;7.800;2023-04-20T02:37:24;99113.16;;;6.56;90.78
63552;BME280;49698;48.072;7.800;2023-04-20T02:39:52;99107.53;;;6.52;90.38
63552;BME280;49698;48.072;7.800;2023-04-20T02:42:20;99108.31;;;6.48;90.37
63552;BME280;49698;48.072;7.800;2023-04-20T02:44:49;99101.63;;;6.45;90.17
63552;BME280;49698;48.072;7.800;2023-04-20T02:47:19;99105.63;;;6.43;89.80
63552;BME280;49698;48.072;7.800;2023-04-20T02:49:48;99100.56;;;6.41;89.77
63552;BME280;49698;48.072;7.800;2023-04-20T02:52:17;99093.63;;;6.40;89.22
63552;BME280;49698;48.072;7.800;2023-04-20T02:54:45;99093.84;;;6.38;88.45
63552;BME280;49698;48.072;7.800;2023-04-20T02:57:13;99096.28;;;6.35;88.40
63552;BME280;49698;48.072;7.800;2023-04-20T02:59:41;99098.94;;;6.35;88.22
63552;BME280;49698;48.072;7.800;2023-04-20T03:02:15;99095.22;;;6.36;88.22
63552;BME280;49698;48.072;7.800;2023-04-20T03:04:44;99094.66;;;6.34;87.49
63552;BME280;49698;48.072;7.800;2023-04-20T03:07:23;99095.72;;;6.28;87.27
63552;BME280;49698;48.072;7.800;2023-04-20T03:09:51;99105.84;;;6.26;86.94
63552;BME280;49698;48.072;7.800;2023-04-20T03:12:51;99092.47;;;6.21;87.00
63552;BME280;49698;48.072;7.800;2023-04-20T03:15:29;99091.41;;;6.17;87.15
63552;BME280;49698;48.072;7.800;2023-04-20T03:18:05;99083.91;;;6.13;87.12
63552;BME280;49698;48.072;7.800;2023-04-20T03:20:34;99084.44;;;6.10;87.01
63552;BME280;49698;48.072;7.800;2023-04-20T03:23:02;99074.03;;;6.09;87.06
63552;BME280;49698;48.072;7.800;2023-04-20T03:25:30;99081.22;;;6.08;86.94
63552;BME280;49698;48.072;7.800;2023-04-20T03:28:03;99085.78;;;6.08;87.10
63552;BME280;49698;48.072;7.800;2023-04-20T03:30:32;99085.50;;;6.04;86.46
63552;BME280;49698;48.072;7.800;2023-04-20T03:33:08;99087.59;;;6.02;86.39
63552;BME280;49698;48.072;7.800;2023-04-20T03:35:37;99078.50;;;5.98;86.33
63552;BME280;49698;48.072;7.800;2023-04-20T03:38:05;99078.22;;;5.95;86.13
63552;BME280;49698;48.072;7.800;2023-04-20T03:40:33;99076.88;;;5.92;85.87
63552;BME280;49698;48.072;7.800;2023-04-20T03:43:03;99074.44;;;5.85;85.77
63552;BME280;49698;48.072;7.800;2023-04-20T03:45:32;99070.91;;;5.80;85.49
63552;BME280;49698;48.072;7.800;2023-04-20T03:48:00;99067.44;;;5.79;85.73
63552;BME280;49698;48.072;7.800;2023-04-20T03:50:28;99067.97;;;5.76;85.41
63552;BME280;49698;48.072;7.800;2023-04-20T03:52:58;99063.44;;;5.77;85.72
63552;BME280;49698;48.072;7.800;2023-04-20T03:55:26;99075.97;;;5.76;84.94
63552;BME280;49698;48.072;7.800;2023-04-20T03:57:59;99074.09;;;5.72;84.74
63552;BME280;49698;48.072;7.800;2023-04-20T04:00:36;99073.00;;;5.68;84.89
63552;BME280;49698;48.072;7.800;2023-04-20T04:03:09;99075.63;;;5.62;84.64
63552;BME280;49698;48.072;7.800;2023-04-20T04:05:37;99065.19;;;5.56;84.62
63552;BME280;49698;48.072;7.800;2023-04-20T04:08:07;99066.22;;;5.50;84.72
63552;BME280;49698;48.072;7.800;2023-04-20T04:10:35;99070.22;;;5.47;84.42
63552;BME280;49698;48.072;7.800;2023-04-20T04:13:02;99068.06;;;5.44;84.49
63552;BME280;49698;48.072;7.800;2023-04-20T04:15:30;99070.69;;;5.39;83.88
63552;BME280;49698;48.072;7.800;2023-04-20T04:18:03;99070.13;;;5.32;83.62
63552;BME280;49698;48.072;7.800;2023-04-20T04:20:33;99064.19;;;5.25;83.56
63552;BME280;49698;48.072;7.800;2023-04-20T04:23:01;99055.88;;;5.16;83.71
63552;BME280;49698;48.072;7.800;2023-04-20T04:25:53;99059.81;;;5.08;83.29
63552;BME280;49698;48.072;7.800;2023-04-20T04:28:24;99065.09;;;5.03;83.45
63552;BME280;49698;48.072;7.800;2023-04-20T04:31:04;99060.28;;;5.00;83.65
63552;BME280;49698;48.072;7.800;2023-04-20T04:33:33;99062.41;;;4.98;83.31
63552;BME280;49698;48.072;7.800;2023-04-20T04:36:03;99058.09;;;4.92;83.44
63552;BME280;49698;48.072;7.800;2023-04-20T04:38:33;99058.84;;;4.87;83.21
63552;BME280;49698;48.072;7.800;2023-04-20T04:41:02;99060.38;;;4.78;83.24
63552;BME280;49698;48.072;7.800;2023-04-20T04:43:31;99061.66;;;4.76;83.41
63552;BME280;49698;48.072;7.800;2023-04-20T04:46:08;99067.53;;;4.73;83.30
63552;BME280;49698;48.072;7.800;2023-04-20T04:48:37;99061.63;;;4.71;82.86
63552;BME280;49698;48.072;7.800;2023-04-20T04:51:06;99060.78;;;4.65;82.75
63552;BME280;49698;48.072;7.800;2023-04-20T04:53:34;99064.72;;;4.57;83.09
63552;BME280;49698;48.072;7.800;2023-04-20T04:56:05;99067.88;;;4.54;83.18
63552;BME280;49698;48.072;7.800;2023-04-20T04:58:33;99063.31;;;4.50;82.61
63552;BME280;49698;48.072;7.800;2023-04-20T05:01:01;99062.38;;;4.39;82.49
63552;BME280;49698;48.072;7.800;2023-04-20T05:03:29;99065.53;;;4.36;82.80
63552;BME280;49698;48.072;7.800;2023-04-20T05:05:57;99068.78;;;4.38;82.87
63552;BME280;49698;48.072;7.800;2023-04-20T05:08:25;99070.38;;;4.39;82.60
63552;BME280;49698;48.072;7.800;2023-04-20T05:10:52;99070.69;;;4.43;82.86
63552;BME280;49698;48.072;7.800;2023-04-20T05:13:22;99065.66;;;4.46;82.61
63552;BME280;49698;48.072;7.800;2023-04-20T05:15:50;99075.81;;;4.49;82.62
63552;BME280;49698;48.072;7.800;2023-04-20T05:18:18;99076.34;;;4.51;82.15
63552;BME280;49698;48.072;7.800;2023-04-20T05:20:45;99077.94;;;4.52;82.15
63552;BME280;49698;48.072;7.800;2023-04-20T05:23:13;99070.56;;;4.59;82.06
63552;BME280;49698;48.072;7.800;2023-04-20T05:25:41;99075.94;;;4.64;81.72
63552;BME280;49698;48.072;7.800;2023-04-20T05:28:09;99072.25;;;4.65;81.35
63552;BME280;49698;48.072;7.800;2023-04-20T05:30:39;99073.03;;;4.66;81.46
63552;BME280;49698;48.072;7.800;2023-04-20T05:33:06;99068.50;;;4.66;81.49
63552;BME280;49698;48.072;7.800;2023-04-20T05:35:34;99071.75;;;4.69;81.16
63552;BME280;49698;48.072;7.800;2023-04-20T05:38:02;99072.84;;;4.73;80.98
63552;BME280;49698;48.072;7.800;2023-04-20T05:40:32;99068.50;;;4.66;80.45
63552;BME280;49698;48.072;7.800;2023-04-20T05:43:00;99070.59;;;4.64;80.79
63552;BME280;49698;48.072;7.800;2023-04-20T05:45:28;99075.13;;;4.64;80.76
63552;BME280;49698;48.072;7.800;2023-04-20T05:47:59;99072.28;;;4.71;80.91
63552;BME280;49698;48.072;7.800;2023-04-20T05:50:27;99063.88;;;4.84;80.67
63552;BME280;49698;48.072;7.800;2023-04-20T05:52:55;99066.88;;;4.93;80.06
63552;BME280;49698;48.072;7.800;2023-04-20T05:55:24;99066.75;;;5.09;80.33
63552;BME280;49698;48.072;7.800;2023-04-20T05:57:52;99068.47;;;5.26;79.58
63552;BME280;49698;48.072;7.800;2023-04-20T06:00:20;99068.56;;;5.41;78.84
63552;BME280;49698;48.072;7.800;2023-04-20T06:02:51;99066.50;;;5.53;78.55
63552;BME280;49698;48.072;7.800;2023-04-20T06:05:21;99059.13;;;5.66;78.23
63552;BME280;49698;48.072;7.800;2023-04-20T06:07:49;99062.34;;;5.73;77.93
63552;BME280;49698;48.072;7.800;2023-04-20T06:10:17;99061.34;;;5.84;77.74
63552;BME280;49698;48.072;7.800;2023-04-20T06:12:45;99062.50;;;5.98;77.39
63552;BME280;49698;48.072;7.800;2023-04-20T06:15:13;99069.50;;;6.09;76.41
63552;BME280;49698;48.072;7.800;2023-04-20T06:17:41;99071.88;;;6.11;75.96
63552;BME280;49698;48.072;7.800;2023-04-20T06:20:10;99063.91;;;6.16;76.44
63552;BME280;49698;48.072;7.800;2023-04-20T06:22:42;99069.53;;;6.20;76.22
63552;BME280;49698;48.072;7.800;2023-04-20T06:25:11;99063.66;;;6.23;76.23
63552;BME280;49698;48.072;7.800;2023-04-20T06:27:40;99065.28;;;6.29;76.62
63552;BME280;49698;48.072;7.800;2023-04-20T06:30:09;99058.06;;;6.34;76.36
63552;BME280;49698;48.072;7.800;2023-04-20T06:32:37;99056.47;;;6.38;76.09
63552;BME280;49698;48.072;7.800;2023-04-20T06:35:06;99067.72;;;6.35;76.38
63552;BME280;49698;48.072;7.800;2023-04-20T06:37:34;99058.91;;;6.35;76.52
63552;BME280;49698;48.072;7.800;2023-04-20T06:40:05;99064.78;;;6.37;76.33
63552;BME280;49698;48.072;7.800;2023-04-20T06:42:33;99068.50;;;6.36;76.71
63552;BME280;49698;48.072;7.800;2023-04-20T06:45:01;99065.31;;;6.39;76.26
63552;BME280;49698;48.072;7.800;2023-04-20T06:47:29;99070.09;;;6.42;75.70
63552;BME280;49698;48.072;7.800;2023-04-20T06:50:00;99065.31;;;6.39;75.93
63552;BME280;49698;48.072;7.800;2023-04-20T06:52:28;99061.56;;;6.35;76.32
63552;BME280;49698;48.072;7.800;2023-04-20T06:54:57;99058.63;;;6.31;76.51
63552;BME280;49698;48.072;7.800;2023-04-20T06:57:26;99053.81;;;6.33;76.29
63552;BME280;49698;48.072;7.800;2023-04-20T06:59:54;99063.69;;;6.38;76.20
63552;BME280;49698;48.072;7.800;2023-04-20T07:02:22;99054.88;;;6.43;75.96
63552;BME280;49698;48.072;7.800;2023-04-20T07:04:50;99054.13;;;6.57;75.93
63552;BME280;49698;48.072;7.800;2023-04-20T07:07:18;99056.81;;;6.68;75.26
63552;BME280;49698;48.072;7.800;2023-04-20T07:09:46;99060.03;;;6.80;75.41
63552;BME280;49698;48.072;7.800;2023-04-20T07:12:13;99059.00;;;7.01;74.88
63552;BME280;49698;48.072;7.800;2023-04-20T07:14:43;99045.06;;;7.20;74.61
63552;BME280;49698;48.072;7.800;2023-04-20T07:17:11;99050.13;;;7.37;73.73
63552;BME280;49698;48.072;7.800;2023-04-20T07:19:38;99045.81;;;7.51;73.48
63552;BME280;49698;48.072;7.800;2023-04-20T07:22:06;99049.75;;;7.74;73.36
63552;BME280;49698;48.072;7.800;2023-04-20T07:24:34;99048.06;;;8.03;72.85
63552;BME280;49698;48.072;7.800;2023-04-20T07:27:02;99049.50;;;8.35;72.25
63552;BME280;49698;48.072;7.800;2023-04-20T07:29:31;99047.00;;;8.54;71.56
63552;BME280;49698;48.072;7.800;2023-04-20T07:32:00;99055.84;;;8.60;70.96
63552;BME280;49698;48.072;7.800;2023-04-20T07:34:28;99056.94;;;8.53;70.51
63552;BME280;49698;48.072;7.800;2023-04-20T07:36:57;99053.00;;;8.41;71.28
63552;BME280;49698;48.072;7.800;2023-04-20T07:39:24;99050.88;;;8.38;70.98
63552;BME280;49698;48.072;7.800;2023-04-20T07:41:54;99048.50;;;8.26;71.50
63552;BME280;49698;48.072;7.800;2023-04-20T07:44:22;99051.75;;;8.13;72.01
63552;BME280;49698;48.072;7.800;2023-04-20T07:46:50;99052.34;;;7.99;72.33
63552;BME280;49698;48.072;7.800;2023-04-20T07:49:19;99044.34;;;7.94;72.66
63552;BME280;49698;48.072;7.800;2023-04-20T07:51:47;99048.66;;;7.85;72.96
63552;BME280;49698;48.072;7.800;2023-04-20T07:54:17;99045.47;;;7.83;73.41
63552;BME280;49698;48.072;7.800;2023-04-20T07:56:46;99042.75;;;7.88;73.27
63552;BME280;49698;48.072;7.800;2023-04-20T07:59:14;99042.72;;;7.93;72.90
63552;BME280;49698;48.072;7.800;2023-04-20T08:01:42;99042.63;;;8.19;72.32
63552;BME280;49698;48.072;7.800;2023-04-20T08:04:10;99034.09;;;8.61;71.10
63552;BME280;49698;48.072;7.800;2023-04-20T08:06:39;99033.28;;;9.00;69.88
63552;BME280;49698;48.072;7.800;2023-04-20T08:09:07;99034.84;;;9.35;69.32
63552;BME280;49698;48.072;7.800;2023-04-20T08:11:36;99030.19;;;9.70;68.45
63552;BME280;49698;48.072;7.800;2023-04-20T08:14:04;99018.91;;;9.92;67.37
63552;BME280;49698;48.072;7.800;2023-04-20T08:16:32;99019.97;;;10.15;66.33
63552;BME280;49698;48.072;7.800;2023-04-20T08:19:00;99013.78;;;10.38;65.61
63552;BME280;49698;48.072;7.800;2023-04-20T08:21:29;99008.22;;;10.67;65.17
63552;BME280;49698;48.072;7.800;2023-04-20T08:23:59;99010.00;;;10.91;64.78
63552;BME280;49698;48.072;7.800;2023-04-20T08:26:27;99005.09;;;11.12;64.14
63552;BME280;49698;48.072;7.800;2023-04-20T08:28:55;99001.88;;;11.10;64.19
63552;BME280;49698;48.072;7.800;2023-04-20T08:31:23;99003.50;;;11.24;64.16
63552;BME280;49698;48.072;7.800;2023-04-20T08:33:51;98996.94;;;11.72;62.37
63552;BME280;49698;48.072;7.800;2023-04-20T08:36:19;98998.72;;;12.18;62.04
63552;BME280;49698;48.072;7.800;2023-04-20T08:38:56;99001.34;;;12.90;61.04
63552;BME280;49698;48.072;7.800;2023-04-20T08:41:26;98998.00;;;13.38;59.40
63552;BME280;49698;48.072;7.800;2023-04-20T08:43:54;99002.50;;;13.52;56.59
63552;BME280;49698;48.072;7.800;2023-04-20T08:46:23;99002.78;;;13.41;56.91
63552;BME280;49698;48.072;7.800;2023-04-20T08:48:52;98998.44;;;13.32;57.10
63552;BME280;49698;48.072;7.800;2023-04-20T08:51:21;99007.28;;;13.24;56.81
63552;BME280;49698;48.072;7.800;2023-04-20T08:53:50;99000.38;;;13.09;56.75
63552;BME280;49698;48.072;7.800;2023-04-20T08:56:18;99006.06;;;12.85;56.68
63552;BME280;49698;48.072;7.800;2023-04-20T08:58:48;99001.78;;;12.61;56.96
63552;BME280;49698;48.072;7.800;2023-04-20T09:01:26;98994.34;;;12.44;57.03
63552;BME280;49698;48.072;7.800;2023-04-20T09:03:58;99000.47;;;12.36;57.66
63552;BME280;49698;48.072;7.800;2023-04-20T09:06:27;99001.28;;;12.23;57.35
63552;BME280;49698;48.072;7.800;2023-04-20T09:08:55;98989.13;;;12.12;57.75
63552;BME280;49698;48.072;7.800;2023-04-20T09:11:24;98992.56;;;12.04;57.04
63552;BME280;49698;48.072;7.800;2023-04-20T09:14:01;98986.50;;;11.98;57.00
63552;BME280;49698;48.072;7.800;2023-04-20T09:16:30;98986.56;;;11.79;57.61
63552;BME280;49698;48.072;7.800;2023-04-20T09:18:58;98991.78;;;11.62;58.55
63552;BME280;49698;48.072;7.800;2023-04-20T09:21:27;98980.03;;;11.58;59.02
63552;BME280;49698;48.072;7.800;2023-04-20T09:23:56;98975.22;;;11.55;58.66
63552;BME280;49698;48.072;7.800;2023-04-20T09:26:24;98975.00;;;11.65;57.85
63552;BME280;49698;48.072;7.800;2023-04-20T09:28:52;98978.81;;;11.64;57.56
63552;BME280;49698;48.072;7.800;2023-04-20T09:31:22;98969.03;;;11.68;56.60
63552;BME280;49698;48.072;7.800;2023-04-20T09:33:58;98968.44;;;11.98;55.12
63552;BME280;49698;48.072;7.800;2023-04-20T09:36:36;98964.31;;;12.37;54.58
63552;BME280;49698;48.072;7.800;2023-04-20T09:39:08;98963.59;;;12.90;53.76
63552;BME280;49698;48.072;7.800;2023-04-20T09:41:38;98961.50;;;13.50;52.43
63552;BME280;49698;48.072;7.800;2023-04-20T09:44:07;98958.44;;;13.82;50.53
63552;BME280;49698;48.072;7.800;2023-04-20T09:46:38;98960.31;;;13.73;50.75
63552;BME280;49698;48.072;7.800;2023-04-20T09:49:08;98962.13;;;13.46;50.82
63552;BME280;49698;48.072;7.800;2023-04-20T09:51:38;98962.59;;;13.40;51.13
63552;BME280;49698;48.072;7.800;2023-04-20T09:54:07;98961.25;;;13.60;50.52
63552;BME280;49698;48.072;7.800;2023-04-20T09:56:35;98956.53;;;14.09;49.78
63552;BME280;49698;48.072;7.800;2023-04-20T09:59:03;98957.50;;;14.48;48.77
63552;BME280;49698;48.072;7.800;2023-04-20T10:01:32;98956.91;;;14.51;48.37
63552;BME280;49698;48.072;7.800;2023-04-20T10:04:06;98958.00;;;14.32;48.44
63552;BME280;49698;48.072;7.800;2023-04-20T10:06:36;98957.84;;;14.20;49.23
63552;BME280;49698;48.072;7.800;2023-04-20T10:09:05;98961.66;;;14.19;49.08
63552;BME280;49698;48.072;7.800;2023-04-20T10:11:34;98954.03;;;14.38;48.29
63552;BME280;49698;48.072;7.800;2023-04-20T10:14:14;98960.69;;;14.32;48.42
63552;BME280;49698;48.072;7.800;2023-04-20T10:16:43;98962.63;;;14.23;47.88
63552;BME280;49698;48.072;7.800;2023-04-20T10:19:13;98951.47;;;13.99;48.68
63552;BME280;49698;48.072;7.800;2023-04-20T10:21:45;98964.56;;;13.65;49.20
63552;BME280;49698;48.072;7.800;2023-04-20T10:24:14;98950.88;;;13.44;50.02
63552;BME280;49698;48.072;7.800;2023-04-20T10:26:44;98949.41;;;13.38;50.33
63552;BME280;49698;48.072;7.800;2023-04-20T10:29:22;98958.13;;;13.35;50.07
63552;BME280;49698;48.072;7.800;2023-04-20T10:31:51;98962.53;;;13.31;50.04
63552;BME280;49698;48.072;7.800;2023-04-20T10:34:29;98961.47;;;13.10;51.04
63552;BME280;49698;48.072;7.800;2023-04-20T10:37:07;98955.69;;;12.94;51.39
63552;BME280;49698;48.072;7.800;2023-04-20T10:39:36;98954.78;;;12.76;51.43
63552;BME280;49698;48.072;7.800;2023-04-20T10:42:04;98948.66;;;12.62;51.84
63552;BME280;49698;48.072;7.800;2023-04-20T10:44:32;98952.22;;;12.48;51.37
63552;BME280;49698;48.072;7.800;2023-04-20T10:47:01;98952.22;;;12.48;51.63
63552;BME280;49698;48.072;7.800;2023-04-20T10:49:30;98946.88;;;12.57;51.51
63552;BME280;49698;48.072;7.800;2023-04-20T10:51:58;98944.91;;;12.71;50.86
63552;BME280;49698;48.072;7.800;2023-04-20T10:54:35;98939.13;;;12.87;51.27
63552;BME280;49698;48.072;7.800;2023-04-20T10:57:04;98938.06;;;12.96;50.40
63552;BME280;49698;48.072;7.800;2023-04-20T10:59:32;98933.47;;;12.97;50.60
63552;BME280;49698;48.072;7.800;2023-04-20T11:02:06;98942.69;;;13.05;50.71
63552;BME280;49698;48.072;7.800;2023-04-20T11:04:37;98937.53;;;13.17;50.12
63552;BME280;49698;48.072;7.800;2023-04-20T11:07:07;98925.81;;;13.21;50.42
63552;BME280;49698;48.072;7.800;2023-04-20T11:09:35;98924.41;;;13.24;49.81
63552;BME280;49698;48.072;7.800;2023-04-20T11:12:05;98925.88;;;12.99;49.82
63552;BME280;49698;48.072;7.800;2023-04-20T11:14:35;98926.88;;;12.81;50.88
63552;BME280;49698;48.072;7.800;2023-04-20T11:17:04;98926.47;;;12.65;50.56
63552;BME280;49698;48.072;7.800;2023-04-20T11:19:33;98927.34;;;12.52;51.07
63552;BME280;49698;48.072;7.800;2023-04-20T11:22:04;98922.69;;;12.43;51.40
63552;BME280;49698;48.072;7.800;2023-04-20T11:24:33;98914.03;;;12.33;51.60
63552;BME280;49698;48.072;7.800;2023-04-20T11:27:01;98910.06;;;12.30;51.91
63552;BME280;49698;48.072;7.800;2023-04-20T11:29:31;98915.81;;;12.37;51.48
63552;BME280;49698;48.072;7.800;2023-04-20T11:32:02;98914.47;;;12.48;51.21
63552;BME280;49698;48.072;7.800;2023-04-20T11:34:31;98915.19;;;12.63;50.97
63552;BME280;49698;48.072;7.800;2023-04-20T11:37:04;98917.44;;;12.69;50.20
63552;BME280;49698;48.072;7.800;2023-04-20T11:39:33;98906.84;;;12.73;49.95
63552;BME280;49698;48.072;7.800;2023-04-20T11:42:01;98914.81;;;12.78;50.24
63552;BME280;49698;48.072;7.800;2023-04-20T11:44:29;98912.81;;;12.92;50.33
63552;BME280;49698;48.072;7.800;2023-04-20T11:46:57;98909.09;;;13.11;50.28
63552;BME280;49698;48.072;7.800;2023-04-20T11:49:27;98909.59;;;13.13;49.27
63552;BME280;49698;48.072;7.800;2023-04-20T11:51:55;98909.09;;;13.11;49.71
63552;BME280;49698;48.072;7.800;2023-04-20T11:54:24;98910.41;;;13.22;49.42
63552;BME280;49698;48.072;7.800;2023-04-20T11:56:54;98900.81;;;13.38;48.93
63552;BME280;49698;48.072;7.800;2023-04-20T11:59:22;98901.34;;;13.66;48.57
63552;BME280;49698;48.072;7.800;2023-04-20T12:01:50;98896.78;;;13.84;48.34
63552;BME280;49698;48.072;7.800;2023-04-20T12:04:18;98892.16;;;13.85;48.13
63552;BME280;49698;48.072;7.800;2023-04-20T12:06:47;98899.81;;;13.91;47.82
63552;BME280;49698;48.072;7.800;2023-04-20T12:09:15;98897.59;;;14.02;48.33
63552;BME280;49698;48.072;7.800;2023-04-20T12:11:44;98896.13;;;14.05;47.99
63552;BME280;49698;48.072;7.800;2023-04-20T12:14:12;98883.28;;;14.10;47.55
63552;BME280;49698;48.072;7.800;2023-04-20T12:16:40;98892.97;;;14.20;48.00
63552;BME280;49698;48.072;7.800;2023-04-20T12:19:08;98886.13;;;14.23;47.67
63552;BME280;49698;48.072;7.800;2023-04-20T12:21:36;98890.56;;;14.27;47.82
63552;BME280;49698;48.072;7.800;2023-04-20T12:24:04;98889.63;;;14.40;48.21
63552;BME280;49698;48.072;7.800;2023-04-20T12:26:32;98888.50;;;14.50;48.35
63552;BME280;49698;48.072;7.800;2023-04-20T12:29:05;98887.19;;;14.48;48.50
63552;BME280;49698;48.072;7.800;2023-04-20T12:31:33;98887.03;;;14.44;48.61
63552;BME280;49698;48.072;7.800;2023-04-20T12:34:02;98875.59;;;14.47;47.88
63552;BME280;49698;48.072;7.800;2023-04-20T12:36:30;98878.31;;;14.56;47.34
63552;BME280;49698;48.072;7.800;2023-04-20T12:39:00;98866.03;;;14.67;46.77
63552;BME280;49698;48.072;7.800;2023-04-20T12:41:29;98864.94;;;14.68;46.29
63552;BME280;49698;48.072;7.800;2023-04-20T12:43:57;98860.50;;;14.55;46.83
63552;BME280;49698;48.072;7.800;2023-04-20T12:46:26;98871.50;;;14.50;46.46
63552;BME280;49698;48.072;7.800;2023-04-20T12:48:54;98863.84;;;14.52;46.84
63552;BME280;49698;48.072;7.800;2023-04-20T12:51:22;98858.88;;;15.09;46.56
63552;BME280;49698;48.072;7.800;2023-04-20T12:53:50;98860.16;;;15.62;44.97
63552;BME280;49698;48.072;7.800;2023-04-20T12:56:18;98859.59;;;15.99;44.43
63552;BME280;49698;48.072;7.800;2023-04-20T12:58:46;98856.00;;;16.28;43.52
63552;BME280;49698;48.072;7.800;2023-04-20T13:01:14;98855.78;;;16.33;42.69
63552;BME280;49698;48.072;7.800;2023-04-20T13:03:43;98852.06;;;16.37;43.05
63552;BME280;49698;48.072;7.800;2023-04-20T13:06:11;98855.66;;;16.29;42.98
63552;BME280;49698;48.072;7.800;2023-04-20T13:08:39;98856.88;;;15.99;44.19
63552;BME280;49698;48.072;7.800;2023-04-20T13:11:09;98852.34;;;15.90;43.83
63552;BME280;49698;48.072;7.800;2023-04-20T13:13:41;98850.81;;;16.02;43.77
63552;BME280;49698;48.072;7.800;2023-04-20T13:16:09;98855.13;;;16.36;42.99
63552;BME280;49698;48.072;7.800;2023-04-20T13:18:37;98852.81;;;16.59;42.41